Hurleton, California
Current Conditions -  °F | °C
As of 9:53 PM on Tuesday 25 Nov 2014 (Local Time) from KOVE Reporting Station
Clear Clear  
Wind Chill: 48°   Ceiling: Unl
Heat Index: 48°   Visibility: 8mi
Dew Point: 44°   Wind: 3mph
Humidity: 86%   Direction: 20°NNE
Pressure: 30.39"   Gusts: NA
Location:  39.5324°N, 121.648°W
Report Text: KOVE 260553Z AUTO 02003KT 8SM CLR 09/07 A3039 RMK AO2 SLP292 T00890067 10167 20083 58001
Loading
Personal Weather Stations






























Interactive Weather Map New forecast layout! Learn more

10-Day Weather Forecast

Advertisements
Track Severe Weather on mobile